Buoy 51659

sailwx.info

Track history (hours):
 
Tides and Currents Weather Stations Pressure Air Temp Water Temp Dewpoint Dewpoint Depression Visibility Wind Speed Wind Dir Waves Ship Positions

Drifting buoy 51659

Last reported at 2016-Feb-07 10:00 UTC. Time now 2016-Feb-07 13:07 UTC.
Position S 06°09' W 176°49'.

Water temperature 30.2 ° C

Date/timePositionNaut miles runAvg speedWind from/ knotsBaromVisibWave heightAir tempDewpointWater temp
2016-Feb-07 10:00S 06°09' W 176°49'0 0.2 30.2
2016-Feb-07 08:00S 06°09' W 176°49'1 0.4 30.4
2016-Feb-07 05:00S 06°08' W 176°50'1 0.5 30.5
2016-Feb-07 04:00S 06°08' W 176°51'0 0.0 30.5
2016-Feb-07 03:00S 06°08' W 176°51'0 0.4 30.6
2016-Feb-07 02:00S 06°08' W 176°51'1 0.8 30.5
2016-Feb-07 01:00S 06°07' W 176°51'0 0.0 30.3
2016-Feb-06 21:00S 06°07' W 176°51'2 1.6 30.1
2016-Feb-06 20:00S 06°06' W 176°52'1 0.6 30.0
2016-Feb-06 18:00S 06°07' W 176°53'1 0.5 30.1
2016-Feb-06 16:00S 06°06' W 176°53'0 0.1 30.1
2016-Feb-06 15:00S 06°06' W 176°52'1 1.5 30.1
2016-Feb-06 14:00S 06°05' W 176°53'0 0.0 30.1
2016-Feb-06 13:00S 06°05' W 176°53'0 0.1 30.1
2016-Feb-06 09:00S 06°05' W 176°53'0 0.5 30.2
2016-Feb-06 08:00S 06°05' W 176°54'1 0.2 30.1
2016-Feb-06 05:00S 06°05' W 176°54'0 0.0 30.2
2016-Feb-06 03:00S 06°05' W 176°54'2 1.0 30.2
2016-Feb-06 01:00S 06°06' W 176°56'0 0.0 30.2
2016-Feb-05 22:00S 06°06' W 176°56'1 0.4 30.2
2016-Feb-05 20:00S 06°07' W 176°56'1 0.9 30.1
2016-Feb-05 19:00S 06°07' W 176°57'4 0.7 30.2
2016-Feb-05 13:00S 06°08' W 177°01'2 2.0 30.2
2016-Feb-05 12:00S 06°07' W 176°59'3 1.0 30.2
2016-Feb-05 09:00S 06°08' W 177°02'1 1.0 30.3
2016-Feb-05 08:00S 06°09' W 177°03'3 0.6 30.3
2016-Feb-05 02:00S 06°07' W 177°06'3 0.4 30.6
2016-Feb-04 20:00S 06°06' W 177°08'2 1.6 30.2
2016-Feb-04 19:00S 06°07' W 177°10'2 0.8 30.2
2016-Feb-04 16:00S 06°05' W 177°11'3 0.9 30.2
2016-Feb-04 13:00S 06°05' W 177°14'2 1.5 30.2
2016-Feb-04 12:00S 06°05' W 177°12'2 0.8 30.3
2016-Feb-04 09:00S 06°05' W 177°14'8 1.1 30.4
2016-Feb-04 02:00S 06°03' W 177°22'0 0.1 30.6
2016-Feb-03 21:00S 06°02' W 177°22'1 1.5 30.3
2016-Feb-03 20:00S 06°02' W 177°24'7 0.6 30.2
2016-Feb-03 09:00S 05°60' W 177°31'0 0.0 30.3
2016-Feb-03 08:00S 05°60' W 177°31'4 0.3 30.4
2016-Feb-02 20:00S 06°00' W 177°35'1 0.2 30.0
2016-Feb-02 17:00S 05°60' W 177°34'2 1.0 30.1
2016-Feb-02 15:00S 06°00' W 177°36'1 0.6 30.1
2016-Feb-02 13:00S 06°00' W 177°37'1 0.3 30.2
2016-Feb-02 10:00S 06°01' W 177°38'1 0.7 30.2
2016-Feb-02 09:00S 06°01' W 177°38'1 0.9 30.3
2016-Feb-02 08:00S 06°02' W 177°39'1 0.2 30.5
2016-Feb-02 05:00S 06°02' W 177°40'5 0.5 30.5
2016-Feb-01 19:00S 06°04' W 177°45'3 1.4 29.9
2016-Feb-01 17:00S 06°05' W 177°47'0 0.0 30.0
2016-Feb-01 14:00S 06°05' W 177°47'2 0.4 30.0
2016-Feb-01 09:00S 06°06' W 177°49'2 2.3 30.1
2016-Feb-01 08:00S 06°07' W 177°51'0 0.0 30.1
2016-Feb-01 07:00S 06°07' W 177°51'1 1.4 30.1
2016-Feb-01 06:00S 06°08' W 177°52'1 0.9 30.1
2016-Feb-01 05:00S 06°09' W 177°51'3 3.0 30.1
2016-Feb-01 04:00S 06°10' W 177°54'0 0.0 30.1
2016-Feb-01 03:00S 06°10' W 177°54'4 4.2 30.1
2016-Feb-01 02:00S 06°10' W 177°58'0 0.0 30.3
2016-Feb-01 01:00S 06°10' W 177°58'0 0.0 30.1
2016-Jan-31 22:00S 06°10' W 177°58'4 3.6 30.0
2016-Jan-31 21:00S 06°12' W 178°01'0 0.0 29.9
2016-Jan-31 20:00S 06°12' W 178°01'6 1.0 29.8
2016-Jan-31 14:00S 06°12' W 178°07'2 0.3 30.1
2016-Jan-31 08:00S 06°12' W 178°09'0 0.0 30.1
2016-Jan-31 07:00S 06°12' W 178°09'1 0.7 30.2
2016-Jan-31 06:00S 06°13' W 178°10'1 1.4 30.2
2016-Jan-31 05:00S 06°13' W 178°11'0 0.0 30.2
2016-Jan-31 04:00S 06°13' W 178°11'1 1.2 30.3
2016-Jan-31 03:00S 06°13' W 178°12'1 0.5 30.2
2016-Jan-31 01:00S 06°12' W 178°13'0 0.0 30.1
2016-Jan-31 00:00S 06°12' W 178°13'3 1.7 30.1
2016-Jan-30 22:00S 06°13' W 178°16'0 0.0 29.9
2016-Jan-30 21:00S 06°13' W 178°16'2 2.1 29.7
2016-Jan-30 20:00S 06°13' W 178°18'0 0.0 29.6
2016-Jan-30 18:00S 06°13' W 178°18'5 1.2 29.5
2016-Jan-30 14:00S 06°14' W 178°23'9 0.5 29.9
2016-Jan-29 21:00S 06°13' W 178°32'2 1.9 30.1
2016-Jan-29 20:00S 06°13' W 178°34'1 0.4 30.1
2016-Jan-29 18:00S 06°12' W 178°34'1 1.5 30.1
2016-Jan-29 17:00S 06°11' W 178°35'2 0.8 30.1
2016-Jan-29 14:00S 06°10' W 178°37'0 0.0 30.1
2016-Jan-29 10:00S 06°10' W 178°37'2 1.9 30.2
2016-Jan-29 09:00S 06°09' W 178°39'0 0.0 30.3
2016-Jan-29 08:00S 06°09' W 178°39'0 0.2 30.3
2016-Jan-29 06:00S 06°09' W 178°39'0 0.4 30.4
2016-Jan-29 05:00S 06°09' W 178°39'1 0.6 30.5
2016-Jan-29 04:00S 06°09' W 178°39'0 0.0 30.6
2016-Jan-29 03:00S 06°09' W 178°39'0 0.2 31.0
2016-Jan-29 01:00S 06°08' W 178°39'2 0.6 30.5
2016-Jan-28 21:00S 06°08' W 178°42'1 0.4 30.2
2016-Jan-28 17:00S 06°08' W 178°43'0 0.0 30.2
2016-Jan-28 16:00S 06°08' W 178°43'0 0.3 30.2
2016-Jan-28 15:00S 06°08' W 178°43'1 0.4 30.2
2016-Jan-28 13:00S 06°07' W 178°43'   30.2
Track history (hours):
 
Tides and Currents Weather Stations Pressure Air Temp Water Temp Dewpoint Dewpoint Depression Visibility Wind Speed Wind Dir Waves Ship Positions

Drifting buoy 51659

Last reported at 2016-Feb-07 10:00 UTC. Time now 2016-Feb-07 13:07 UTC.
Position S 06°09' W 176°49'.

Water temperature 30.2 ° C

Date/timePositionNaut miles runAvg speedWind from/ knotsBaromVisibWave heightAir tempDewpointWater temp
2016-Feb-07 10:00S 06°09' W 176°49'0 0.2 30.2
2016-Feb-07 08:00S 06°09' W 176°49'1 0.4 30.4
2016-Feb-07 05:00S 06°08' W 176°50'1 0.5 30.5
2016-Feb-07 04:00S 06°08' W 176°51'0 0.0 30.5
2016-Feb-07 03:00S 06°08' W 176°51'0 0.4 30.6
2016-Feb-07 02:00S 06°08' W 176°51'1 0.8 30.5
2016-Feb-07 01:00S 06°07' W 176°51'0 0.0 30.3
2016-Feb-06 21:00S 06°07' W 176°51'2 1.6 30.1
2016-Feb-06 20:00S 06°06' W 176°52'1 0.6 30.0
2016-Feb-06 18:00S 06°07' W 176°53'1 0.5 30.1
2016-Feb-06 16:00S 06°06' W 176°53'0 0.1 30.1
2016-Feb-06 15:00S 06°06' W 176°52'1 1.5 30.1
2016-Feb-06 14:00S 06°05' W 176°53'0 0.0 30.1
2016-Feb-06 13:00S 06°05' W 176°53'0 0.1 30.1
2016-Feb-06 09:00S 06°05' W 176°53'0 0.5 30.2
2016-Feb-06 08:00S 06°05' W 176°54'1 0.2 30.1
2016-Feb-06 05:00S 06°05' W 176°54'0 0.0 30.2
2016-Feb-06 03:00S 06°05' W 176°54'2 1.0 30.2
2016-Feb-06 01:00S 06°06' W 176°56'0 0.0 30.2
2016-Feb-05 22:00S 06°06' W 176°56'1 0.4 30.2
2016-Feb-05 20:00S 06°07' W 176°56'1 0.9 30.1
2016-Feb-05 19:00S 06°07' W 176°57'4 0.7 30.2
2016-Feb-05 13:00S 06°08' W 177°01'2 2.0 30.2
2016-Feb-05 12:00S 06°07' W 176°59'3 1.0 30.2
2016-Feb-05 09:00S 06°08' W 177°02'1 1.0 30.3
2016-Feb-05 08:00S 06°09' W 177°03'3 0.6 30.3
2016-Feb-05 02:00S 06°07' W 177°06'3 0.4 30.6
2016-Feb-04 20:00S 06°06' W 177°08'2 1.6 30.2
2016-Feb-04 19:00S 06°07' W 177°10'2 0.8 30.2
2016-Feb-04 16:00S 06°05' W 177°11'3 0.9 30.2
2016-Feb-04 13:00S 06°05' W 177°14'2 1.5 30.2
2016-Feb-04 12:00S 06°05' W 177°12'2 0.8 30.3
2016-Feb-04 09:00S 06°05' W 177°14'8 1.1 30.4
2016-Feb-04 02:00S 06°03' W 177°22'0 0.1 30.6
2016-Feb-03 21:00S 06°02' W 177°22'1 1.5 30.3
2016-Feb-03 20:00S 06°02' W 177°24'7 0.6 30.2
2016-Feb-03 09:00S 05°60' W 177°31'0 0.0 30.3
2016-Feb-03 08:00S 05°60' W 177°31'4 0.3 30.4
2016-Feb-02 20:00S 06°00' W 177°35'1 0.2 30.0
2016-Feb-02 17:00S 05°60' W 177°34'2 1.0 30.1
2016-Feb-02 15:00S 06°00' W 177°36'1 0.6 30.1
2016-Feb-02 13:00S 06°00' W 177°37'1 0.3 30.2
2016-Feb-02 10:00S 06°01' W 177°38'1 0.7 30.2
2016-Feb-02 09:00S 06°01' W 177°38'1 0.9 30.3
2016-Feb-02 08:00S 06°02' W 177°39'1 0.2 30.5
2016-Feb-02 05:00S 06°02' W 177°40'5 0.5 30.5
2016-Feb-01 19:00S 06°04' W 177°45'3 1.4 29.9
2016-Feb-01 17:00S 06°05' W 177°47'0 0.0 30.0
2016-Feb-01 14:00S 06°05' W 177°47'2 0.4 30.0
2016-Feb-01 09:00S 06°06' W 177°49'2 2.3 30.1
2016-Feb-01 08:00S 06°07' W 177°51'0 0.0 30.1
2016-Feb-01 07:00S 06°07' W 177°51'1 1.4 30.1
2016-Feb-01 06:00S 06°08' W 177°52'1 0.9 30.1
2016-Feb-01 05:00S 06°09' W 177°51'3 3.0 30.1
2016-Feb-01 04:00S 06°10' W 177°54'0 0.0 30.1
2016-Feb-01 03:00S 06°10' W 177°54'4 4.2 30.1
2016-Feb-01 02:00S 06°10' W 177°58'0 0.0 30.3
2016-Feb-01 01:00S 06°10' W 177°58'0 0.0 30.1
2016-Jan-31 22:00S 06°10' W 177°58'4 3.6 30.0
2016-Jan-31 21:00S 06°12' W 178°01'0 0.0 29.9
2016-Jan-31 20:00S 06°12' W 178°01'6 1.0 29.8
2016-Jan-31 14:00S 06°12' W 178°07'2 0.3 30.1
2016-Jan-31 08:00S 06°12' W 178°09'0 0.0 30.1
2016-Jan-31 07:00S 06°12' W 178°09'1 0.7 30.2
2016-Jan-31 06:00S 06°13' W 178°10'1 1.4 30.2
2016-Jan-31 05:00S 06°13' W 178°11'0 0.0 30.2
2016-Jan-31 04:00S 06°13' W 178°11'1 1.2 30.3
2016-Jan-31 03:00S 06°13' W 178°12'1 0.5 30.2
2016-Jan-31 01:00S 06°12' W 178°13'0 0.0 30.1
2016-Jan-31 00:00S 06°12' W 178°13'3 1.7 30.1
2016-Jan-30 22:00S 06°13' W 178°16'0 0.0 29.9
2016-Jan-30 21:00S 06°13' W 178°16'2 2.1 29.7
2016-Jan-30 20:00S 06°13' W 178°18'0 0.0 29.6
2016-Jan-30 18:00S 06°13' W 178°18'5 1.2 29.5
2016-Jan-30 14:00S 06°14' W 178°23'9 0.5 29.9
2016-Jan-29 21:00S 06°13' W 178°32'2 1.9 30.1
2016-Jan-29 20:00S 06°13' W 178°34'1 0.4 30.1
2016-Jan-29 18:00S 06°12' W 178°34'1 1.5 30.1
2016-Jan-29 17:00S 06°11' W 178°35'2 0.8 30.1
2016-Jan-29 14:00S 06°10' W 178°37'0 0.0 30.1
2016-Jan-29 10:00S 06°10' W 178°37'2 1.9 30.2
2016-Jan-29 09:00S 06°09' W 178°39'0 0.0 30.3
2016-Jan-29 08:00S 06°09' W 178°39'0 0.2 30.3
2016-Jan-29 06:00S 06°09' W 178°39'0 0.4 30.4
2016-Jan-29 05:00S 06°09' W 178°39'1 0.6 30.5
2016-Jan-29 04:00S 06°09' W 178°39'0 0.0 30.6
2016-Jan-29 03:00S 06°09' W 178°39'0 0.2 31.0
2016-Jan-29 01:00S 06°08' W 178°39'2 0.6 30.5
2016-Jan-28 21:00S 06°08' W 178°42'1 0.4 30.2
2016-Jan-28 17:00S 06°08' W 178°43'0 0.0 30.2
2016-Jan-28 16:00S 06°08' W 178°43'0 0.3 30.2
2016-Jan-28 15:00S 06°08' W 178°43'1 0.4 30.2
2016-Jan-28 13:00S 06°07' W 178°43'   30.2

Dump ship's entire track history